Leadore, Idaho
Current Conditions -  °F | °C
As of 3:35 AM on Saturday 20 Dec 2014 (Local Time) from KSMN Reporting Station
Overcast Overcast  
Wind Chill: 27°   Ceiling: 200
Heat Index: 27°   Visibility: 0.25mi
Dew Point: 25°   Wind: 0mph
Humidity: 93%   Direction: NA
Pressure: 30.03"   Gusts: NA
Location:  44.68°N, 113.36°W
Report Text: KSMN 201035Z AUTO 00000KT 1/4SM OVC002 M03/M04 A3003 RMK AO1
Loading
Personal Weather Stations






























Interactive Weather Map New forecast layout! Learn more

10-Day Weather Forecast

Advertisements
Track Severe Weather on mobile